Aérodrome :
LOGIN :

S'inscrire | Disclaimer

   EN    FR    IT 

 










Légende :    VFR   VFR Marginal   IFR   IFR Intensif   IFR Très Intensif
Visi : 
Plafond : 
>= 8 km
>= 3000ft
5 à 8 km
1000 à 3000 ft
1500m à 5 km
500 à 1000 ft
800 à 1500m
200 à 500 ft
< 800m
< 200 ft
Symboles :   Orages  Brouillard  Fortes neiges  Fortes précipitations  Vent > 20 kt
SIGMETs :   Divers  Orages  Givrage  Turbulence  Onde Orograph.  Cendres Volcan.






- Altitude de l'aérodrome : 257 ft
- Code IATA : MAN


EGCC - Manchester

DERNIER METAR :
  • 131520Z 26007KT 9999 -RA SCT030 BKN048 15/13 Q1013

METARs EXPIRÉS :
  • 131450Z 27008KT 9999 -RA SCT028 BKN048 15/12 Q1013
  • 131420Z 26011KT 9999 VCSH SCT022 BKN049 15/12 Q1013 NOSIG
  • 131350Z 26012KT 9999 VCSH FEW017 BKN028 15/13 Q1013
  • 131320Z AUTO 29010KT 9999 BKN030 BKN041 17/10 Q1013
  • 131250Z AUTO 30009KT 9999 SCT030/// SCT036/// //////CB 17/10 Q1013
  • 131220Z AUTO 34007KT 300V010 9999 -RA BKN029/// BKN038/// //////TCU 17/11 Q1013
  • 131150Z AUTO 32007KT 270V010 9999 BKN029 BKN040 16/10 Q1013
  • 131120Z 02005KT 9999 SCT028 SCT038 16/10 Q1014
  • 131050Z 36005KT 290V030 9999 SCT028 15/10 Q1014 TEMPO SHRA

TAF TAF EGCC
Valide du 13 à 12h jusqu'au 14 à 18h UTC


131057Z 1312/1418 31007KT 9999 SCT025
PROB30
TEMPO 1312/1318 7000 SHRA
PROB30
TEMPO 1400/1405 7000 -RA BKN014
TEMPO 1405/1418 6000 RA -RADZ BKN008
PROB30
TEMPO 1405/1418 4000 RADZ BKN004
ATIS : +44 161 499 2324



MET'MAP, la Météo Aéronautique d'un coup d'oeil ! - Copyright ORBIFLY Décembre 2007 - Disclaimer

ORBIFLY MET'MAP TEAM :

Programmation & Développement : Alexandra Zaïnal
Sur une idée originale de : Baudouin d'Aumeries
Soutien technique & logistique : Manuel Goepfert
Assistance : Marc-Olivier Méhu




SOURCES & CREDITS :

   NOAA